Time;durP1;ratioP1;P1;durP2;ratioP2;P2;SDS_P1;SDS_P2;PMS_P1;PMS_P2;Temp;Humidity;BMP_temperature;BMP_pressure;BME280_temperature;BME280_humidity;BME280_pressure;Samples;Min_cycle;Max_cycle;Signal;HPM_P1;HPM_P2
2023/06/24 00:00:59;;;;;;;3.90;3.50;;;18.50;68.20;;;;;;5027988;28;20047;-63
2023/06/24 00:03:25;;;;;;;4.60;3.83;;;18.50;68.10;;;;;;5026465;28;20033;-63
2023/06/24 00:05:50;;;;;;;4.45;3.88;;;18.50;68.10;;;;;;5028354;28;20520;-63
2023/06/24 00:08:22;;;;;;;4.25;3.85;;;18.50;68.00;;;;;;5027456;28;20033;-62
2023/06/24 00:10:48;;;;;;;3.75;3.30;;;18.50;68.20;;;;;;5022248;28;20689;-63
2023/06/24 00:13:17;;;;;;;3.72;3.30;;;18.50;68.00;;;;;;5028031;28;20514;-63
2023/06/24 00:15:43;;;;;;;4.82;3.50;;;18.50;68.30;;;;;;5026078;28;20037;-63
2023/06/24 00:18:10;;;;;;;4.57;3.83;;;18.50;68.10;;;;;;5031001;28;20163;-63
2023/06/24 00:20:35;;;;;;;5.30;3.72;;;18.50;68.20;;;;;;5029317;28;20057;-63
2023/06/24 00:23:01;;;;;;;3.72;3.42;;;18.50;68.00;;;;;;5028057;28;20071;-63
2023/06/24 00:25:27;;;;;;;4.82;3.95;;;18.50;68.20;;;;;;5025507;28;20056;-61
2023/06/24 00:27:52;;;;;;;4.15;3.75;;;18.50;68.50;;;;;;5031401;28;20029;-63
2023/06/24 00:30:18;;;;;;;4.65;4.20;;;18.50;69.50;;;;;;5030883;28;20071;-63
2023/06/24 00:32:44;;;;;;;6.03;4.68;;;18.60;69.00;;;;;;5023129;28;21077;-63
2023/06/24 00:35:12;;;;;;;4.50;4.10;;;18.60;69.00;;;;;;5026063;28;20044;-63
2023/06/24 00:37:37;;;;;;;5.03;4.50;;;18.60;69.00;;;;;;5029602;28;20769;-63
2023/06/24 00:40:05;;;;;;;4.35;3.92;;;18.60;69.20;;;;;;5025577;28;20041;-63
2023/06/24 00:42:31;;;;;;;5.63;4.50;;;18.60;69.30;;;;;;5026135;28;20416;-63
2023/06/24 00:44:57;;;;;;;5.32;4.78;;;18.70;69.20;;;;;;5025382;28;20488;-63
2023/06/24 00:47:23;;;;;;;5.43;4.80;;;18.70;69.10;;;;;;5025565;28;20041;-63
2023/06/24 00:49:49;;;;;;;5.10;4.60;;;18.70;68.70;;;;;;5025018;28;20041;-63
2023/06/24 00:52:15;;;;;;;5.75;4.20;;;18.60;68.50;;;;;;5027058;28;20042;-61
2023/06/24 00:54:42;;;;;;;5.28;4.78;;;18.50;68.60;;;;;;5026754;28;20044;-63
2023/06/24 00:57:08;;;;;;;6.70;5.15;;;18.50;69.00;;;;;;5025751;28;20029;-63
2023/06/24 00:59:35;;;;;;;6.65;4.80;;;18.40;69.20;;;;;;5024093;28;20248;-63
2023/06/24 01:02:01;;;;;;;6.07;5.00;;;18.40;69.50;;;;;;5023261;28;20041;-63
2023/06/24 01:04:28;;;;;;;5.22;4.72;;;18.30;69.70;;;;;;5026800;28;20065;-64
2023/06/24 01:06:54;;;;;;;4.85;4.45;;;18.20;70.00;;;;;;5029996;28;20042;-61
2023/06/24 01:09:20;;;;;;;5.30;4.80;;;18.10;70.20;;;;;;5027543;28;20040;-64
2023/06/24 01:11:46;;;;;;;5.93;4.75;;;18.00;70.30;;;;;;5022969;28;20045;-63
2023/06/24 01:14:12;;;;;;;6.47;5.40;;;18.00;70.60;;;;;;5021360;28;20440;-63
2023/06/24 01:16:47;;;;;;;5.88;5.00;;;17.90;70.80;;;;;;5028940;28;20077;-63
2023/06/24 01:19:48;;;;;;;5.53;5.03;;;17.90;71.90;;;;;;5028025;28;20042;-63
2023/06/24 01:22:25;;;;;;;7.13;4.93;;;17.90;72.40;;;;;;5027253;28;20036;-63
2023/06/24 01:25:02;;;;;;;8.50;5.47;;;17.90;71.40;;;;;;5027002;28;20025;-63
2023/06/24 01:27:50;;;;;;;5.97;5.10;;;17.90;72.50;;;;;;5025567;28;20033;-63
2023/06/24 01:30:15;;;;;;;6.32;5.47;;;17.80;73.50;;;;;;5030041;28;20037;-64
2023/06/24 01:32:55;;;;;;;7.30;5.30;;;17.80;71.80;;;;;;5023791;28;20037;-63
2023/06/24 01:35:25;;;;;;;6.18;5.32;;;17.80;72.50;;;;;;5030061;28;21484;-63
2023/06/24 01:37:52;;;;;;;5.95;5.35;;;17.80;72.00;;;;;;5030182;28;20049;-63
2023/06/24 01:40:32;;;;;;;5.55;4.97;;;17.80;72.10;;;;;;5030158;28;20042;-62
2023/06/24 01:43:01;;;;;;;6.82;5.28;;;17.80;72.50;;;;;;5028929;28;20037;-63
2023/06/24 01:45:31;;;;;;;7.07;5.28;;;17.80;72.30;;;;;;5027245;28;20053;-63
2023/06/24 01:48:11;;;;;;;7.53;5.43;;;17.80;72.30;;;;;;5029011;28;20069;-62
2023/06/24 01:50:42;;;;;;;6.00;5.10;;;17.80;73.20;;;;;;5027857;28;20038;-63
2023/06/24 01:53:08;;;;;;;7.03;5.57;;;17.80;72.60;;;;;;5032289;28;20041;-63
2023/06/24 01:55:37;;;;;;;5.82;5.20;;;17.70;72.40;;;;;;5027898;28;20177;-63
2023/06/24 01:58:05;;;;;;;6.20;5.25;;;17.70;72.80;;;;;;5029495;28;20041;-63
2023/06/24 02:00:33;;;;;;;5.63;4.75;;;17.70;72.70;;;;;;5026690;28;20418;-63
2023/06/24 02:02:59;;;;;;;5.35;4.85;;;17.60;72.80;;;;;;5029469;28;20060;-63
2023/06/24 02:05:26;;;;;;;5.47;4.93;;;17.60;73.00;;;;;;5030110;28;20044;-63
2023/06/24 02:07:54;;;;;;;7.47;4.95;;;17.60;73.20;;;;;;5034577;28;20106;-63
2023/06/24 02:10:20;;;;;;;6.45;4.95;;;17.60;73.30;;;;;;5031514;28;20057;-64
2023/06/24 02:12:50;;;;;;;7.63;5.32;;;17.60;73.50;;;;;;5024369;28;21996;-63
2023/06/24 02:15:18;;;;;;;9.02;5.53;;;17.60;73.50;;;;;;5031893;28;20141;-63
2023/06/24 02:17:45;;;;;;;5.65;4.93;;;17.50;73.50;;;;;;5032708;28;20033;-63
2023/06/24 02:20:11;;;;;;;7.03;5.60;;;17.50;73.80;;;;;;5034761;28;20042;-64
2023/06/24 02:22:39;;;;;;;5.95;5.35;;;17.50;74.00;;;;;;5031247;28;20037;-63
2023/06/24 02:25:06;;;;;;;6.43;5.60;;;17.40;74.00;;;;;;5030021;28;20548;-63
2023/06/24 02:27:33;;;;;;;7.35;5.40;;;17.40;75.10;;;;;;5033812;28;20531;-63
2023/06/24 02:30:00;;;;;;;6.03;5.43;;;17.50;74.20;;;;;;5036463;28;20136;-63
2023/06/24 02:32:26;;;;;;;6.55;5.15;;;17.50;74.20;;;;;;5030274;28;20033;-60
2023/06/24 02:34:52;;;;;;;6.07;5.18;;;17.50;74.20;;;;;;5028498;28;20037;-63
2023/06/24 02:37:17;;;;;;;5.57;5.00;;;17.60;74.00;;;;;;5029397;28;20057;-63
2023/06/24 02:39:44;;;;;;;5.80;5.20;;;17.60;73.90;;;;;;5030211;28;20234;-63
2023/06/24 02:42:12;;;;;;;5.95;5.35;;;17.60;73.90;;;;;;5031981;28;20030;-63
2023/06/24 02:44:42;;;;;;;5.93;5.32;;;17.60;74.00;;;;;;5031179;28;20040;-63
2023/06/24 02:47:10;;;;;;;7.47;5.20;;;17.70;74.00;;;;;;5027374;28;20437;-63
2023/06/24 02:49:38;;;;;;;5.93;5.38;;;17.70;73.70;;;;;;5032287;28;20702;-62
2023/06/24 02:52:04;;;;;;;6.10;5.50;;;17.70;73.50;;;;;;5033616;28;20056;-63
2023/06/24 02:54:30;;;;;;;6.07;5.47;;;17.60;73.30;;;;;;5029605;28;20037;-63
2023/06/24 02:56:57;;;;;;;6.22;5.63;;;17.50;73.30;;;;;;5028890;28;20049;-63
2023/06/24 02:59:24;;;;;;;6.43;5.80;;;17.50;73.50;;;;;;5028417;28;20038;-63
2023/06/24 03:01:54;;;;;;;6.38;5.78;;;17.40;73.50;;;;;;5029356;28;20124;-63
2023/06/24 03:04:20;;;;;;;6.78;5.53;;;17.40;73.90;;;;;;5025772;28;20102;-63
2023/06/24 03:06:48;;;;;;;6.65;5.57;;;17.40;74.00;;;;;;5026622;28;20045;-63
2023/06/24 03:09:15;;;;;;;6.57;5.45;;;17.40;74.00;;;;;;5025696;28;20042;-62
2023/06/24 03:11:44;;;;;;;5.82;5.15;;;17.40;74.90;;;;;;5027071;28;20037;-63
2023/06/24 03:14:11;;;;;;;7.57;5.80;;;17.40;74.20;;;;;;5026351;28;20329;-63
2023/06/24 03:16:38;;;;;;;5.95;5.30;;;17.40;74.10;;;;;;5028860;28;20045;-63
2023/06/24 03:19:04;;;;;;;5.95;5.35;;;17.40;74.10;;;;;;5027723;28;20112;-63
2023/06/24 03:21:30;;;;;;;5.95;5.35;;;17.40;74.20;;;;;;5026156;28;20029;-63
2023/06/24 03:23:56;;;;;;;5.93;5.32;;;17.30;74.90;;;;;;5027900;28;20203;-63
2023/06/24 03:26:22;;;;;;;5.78;5.22;;;17.30;74.20;;;;;;5030965;28;20033;-63
2023/06/24 03:28:48;;;;;;;5.93;5.32;;;17.20;74.40;;;;;;5026259;28;20045;-63
2023/06/24 03:31:15;;;;;;;7.03;5.40;;;17.20;74.50;;;;;;5026801;28;20291;-63
2023/06/24 03:33:44;;;;;;;6.82;6.13;;;17.10;74.60;;;;;;5033188;28;20038;-63
2023/06/24 03:36:10;;;;;;;6.60;5.88;;;17.10;74.70;;;;;;5028273;28;20140;-62
2023/06/24 03:38:36;;;;;;;6.75;5.97;;;17.00;75.00;;;;;;5030505;28;20037;-63
2023/06/24 03:41:02;;;;;;;5.50;5.00;;;17.00;75.20;;;;;;5033426;28;20045;-63
2023/06/24 03:43:27;;;;;;;5.95;5.30;;;17.00;75.40;;;;;;5029420;28;20033;-63
2023/06/24 03:45:53;;;;;;;6.65;5.82;;;16.90;75.50;;;;;;5024385;28;20033;-63
2023/06/24 03:48:18;;;;;;;8.45;5.85;;;16.90;75.80;;;;;;5032763;28;20064;-63
2023/06/24 03:50:44;;;;;;;6.93;6.20;;;16.90;75.90;;;;;;5032650;28;20065;-63
2023/06/24 03:53:10;;;;;;;7.40;5.90;;;16.90;75.80;;;;;;5028272;28;20053;-63
2023/06/24 03:55:35;;;;;;;7.18;5.78;;;16.80;75.80;;;;;;5029864;28;20385;-63
2023/06/24 03:58:01;;;;;;;5.53;5.03;;;16.80;76.80;;;;;;5032257;28;20401;-63
2023/06/24 04:00:26;;;;;;;6.65;5.95;;;16.80;76.10;;;;;;5029880;28;20036;-59
2023/06/24 04:02:53;;;;;;;6.88;5.88;;;16.80;76.30;;;;;;5025899;28;20041;-63
2023/06/24 04:05:21;;;;;;;11.23;6.32;;;16.80;76.50;;;;;;5031145;28;20124;-63
2023/06/24 04:07:47;;;;;;;6.45;5.63;;;16.80;76.70;;;;;;5027439;28;20570;-63
2023/06/24 04:10:13;;;;;;;7.10;5.63;;;16.70;76.80;;;;;;5028428;28;20564;-63
2023/06/24 04:12:38;;;;;;;8.52;5.85;;;16.70;76.80;;;;;;5023255;28;20745;-63
2023/06/24 04:15:05;;;;;;;6.10;5.53;;;16.70;77.90;;;;;;5029755;28;21509;-63
2023/06/24 04:17:30;;;;;;;7.38;5.95;;;16.70;77.30;;;;;;5029828;28;20296;-63
2023/06/24 04:19:57;;;;;;;5.78;5.20;;;16.70;77.40;;;;;;5032418;28;20048;-62
2023/06/24 04:22:23;;;;;;;7.03;5.28;;;16.70;77.50;;;;;;5027095;28;20543;-63
2023/06/24 04:24:48;;;;;;;7.25;5.13;;;16.60;77.40;;;;;;5026857;28;22101;-63
2023/06/24 04:27:14;;;;;;;6.32;5.72;;;16.60;77.60;;;;;;5034439;28;20028;-64
2023/06/24 04:29:39;;;;;;;6.85;5.90;;;16.60;78.70;;;;;;5035032;28;20036;-63
2023/06/24 04:32:05;;;;;;;8.75;5.60;;;16.70;78.00;;;;;;5032732;28;20045;-63
2023/06/24 04:34:32;;;;;;;7.10;5.72;;;16.70;78.00;;;;;;5028861;28;20037;-62
2023/06/24 04:36:58;;;;;;;8.25;6.00;;;16.70;78.10;;;;;;5030128;28;20041;-63
2023/06/24 04:39:23;;;;;;;7.13;5.80;;;16.70;78.00;;;;;;5028453;28;20045;-64
2023/06/24 04:41:49;;;;;;;7.38;5.70;;;16.70;78.10;;;;;;5025053;28;20029;-63
2023/06/24 04:44:14;;;;;;;6.10;5.45;;;16.70;78.20;;;;;;5028387;28;20088;-63
2023/06/24 04:46:40;;;;;;;7.85;6.13;;;16.70;78.40;;;;;;5029576;28;20041;-63
2023/06/24 04:49:06;;;;;;;6.93;6.22;;;16.70;78.40;;;;;;5030443;28;20127;-63
2023/06/24 04:51:32;;;;;;;9.07;6.72;;;16.80;78.40;;;;;;5029087;28;20045;-63
2023/06/24 04:53:58;;;;;;;8.35;6.43;;;16.80;78.70;;;;;;5027212;28;20083;-63
2023/06/24 04:56:24;;;;;;;7.95;6.60;;;16.80;78.80;;;;;;5030874;28;20404;-61
2023/06/24 04:58:50;;;;;;;9.07;6.68;;;16.80;78.80;;;;;;5026470;28;20404;-62
2023/06/24 05:01:16;;;;;;;7.80;6.55;;;16.80;79.80;;;;;;5028123;28;20030;-63
2023/06/24 05:03:41;;;;;;;7.60;6.68;;;16.80;79.10;;;;;;5024346;28;20559;-63
2023/06/24 05:06:07;;;;;;;9.45;6.43;;;16.90;79.40;;;;;;5028472;28;20045;-63
2023/06/24 05:08:32;;;;;;;7.88;6.75;;;16.90;79.60;;;;;;5028834;28;20032;-63
2023/06/24 05:10:58;;;;;;;7.80;6.78;;;17.00;79.90;;;;;;5021712;28;20375;-63
2023/06/24 05:13:24;;;;;;;7.97;6.90;;;17.00;80.00;;;;;;5023402;28;20496;-63
2023/06/24 05:15:49;;;;;;;7.63;6.50;;;17.00;80.30;;;;;;5029019;28;20136;-63
2023/06/24 05:18:15;;;;;;;7.25;6.47;;;17.10;80.50;;;;;;5029313;28;20463;-64
2023/06/24 05:20:41;;;;;;;7.53;6.47;;;17.10;80.50;;;;;;5027132;28;20486;-63
2023/06/24 05:23:06;;;;;;;8.20;6.55;;;17.20;80.50;;;;;;5028298;28;20037;-63
2023/06/24 05:25:32;;;;;;;8.38;6.45;;;17.30;80.30;;;;;;5028776;28;20025;-63
2023/06/24 05:27:57;;;;;;;7.50;6.47;;;17.40;80.00;;;;;;5031304;28;20037;-63
2023/06/24 05:30:23;;;;;;;7.55;6.57;;;17.40;80.00;;;;;;5027884;28;20136;-63
2023/06/24 05:32:49;;;;;;;8.60;7.32;;;17.50;80.20;;;;;;5022992;28;20064;-63
2023/06/24 05:35:14;;;;;;;9.50;6.60;;;17.50;80.30;;;;;;5026339;28;20040;-63
2023/06/24 05:37:40;;;;;;;7.72;7.00;;;17.60;81.00;;;;;;5028374;28;20037;-63
2023/06/24 05:40:07;;;;;;;7.13;6.43;;;17.70;80.10;;;;;;5023899;28;20423;-63
2023/06/24 05:42:33;;;;;;;11.23;7.25;;;17.70;80.10;;;;;;5028193;28;20029;-63
2023/06/24 05:44:59;;;;;;;8.45;6.75;;;17.80;79.70;;;;;;5031524;28;20034;-63
2023/06/24 05:47:24;;;;;;;8.27;6.88;;;17.90;79.30;;;;;;5029693;28;20039;-63
2023/06/24 05:49:50;;;;;;;7.93;6.25;;;17.90;79.20;;;;;;5025387;28;20071;-63
2023/06/24 05:52:15;;;;;;;7.20;6.50;;;17.90;79.10;;;;;;5028074;28;20306;-63
2023/06/24 05:54:41;;;;;;;6.82;6.15;;;18.10;78.80;;;;;;5029560;28;20037;-63
2023/06/24 05:57:07;;;;;;;6.85;6.22;;;18.10;78.20;;;;;;5031627;28;20049;-63
2023/06/24 05:59:33;;;;;;;6.47;5.82;;;18.10;78.00;;;;;;5027629;28;20084;-61
2023/06/24 06:01:59;;;;;;;6.80;6.10;;;18.20;77.90;;;;;;5025726;28;20083;-63
2023/06/24 06:04:24;;;;;;;7.25;6.03;;;18.30;77.70;;;;;;5022217;28;20515;-62
2023/06/24 06:06:50;;;;;;;8.23;5.68;;;18.50;77.60;;;;;;5022640;28;20372;-63
2023/06/24 06:09:15;;;;;;;5.90;5.30;;;18.50;77.50;;;;;;5025450;28;20381;-63
2023/06/24 06:11:41;;;;;;;6.20;5.60;;;18.60;77.30;;;;;;5025090;28;20033;-63
2023/06/24 06:14:07;;;;;;;7.00;6.30;;;18.70;77.20;;;;;;5024469;28;20072;-63
2023/06/24 06:16:32;;;;;;;10.57;6.93;;;18.80;77.20;;;;;;5026070;28;20459;-63
2023/06/24 06:18:58;;;;;;;7.00;6.30;;;18.90;76.60;;;;;;5024743;28;20128;-63
2023/06/24 06:21:24;;;;;;;6.53;5.80;;;19.00;76.10;;;;;;5024733;28;20041;-63
2023/06/24 06:23:50;;;;;;;7.47;5.50;;;19.10;75.70;;;;;;5025844;28;20032;-62
2023/06/24 06:26:15;;;;;;;6.93;5.88;;;19.10;75.80;;;;;;5033006;28;20033;-62
2023/06/24 06:28:41;;;;;;;7.60;5.93;;;19.20;75.90;;;;;;5029738;28;20047;-61
2023/06/24 06:31:07;;;;;;;6.38;5.65;;;19.30;75.80;;;;;;5035138;28;20048;-62
2023/06/24 06:33:32;;;;;;;6.38;5.78;;;19.30;75.40;;;;;;5027341;28;20072;-62
2023/06/24 06:35:58;;;;;;;6.70;5.63;;;19.40;74.90;;;;;;5006982;28;20045;-62
2023/06/24 06:38:24;;;;;;;8.55;5.78;;;19.60;74.70;;;;;;5006745;28;20081;-62
2023/06/24 06:40:50;;;;;;;8.52;5.63;;;19.60;74.50;;;;;;5018587;28;20125;-62
2023/06/24 06:43:15;;;;;;;6.07;5.45;;;19.70;74.30;;;;;;5024438;28;20473;-62
2023/06/24 06:45:41;;;;;;;5.50;5.00;;;19.80;73.70;;;;;;5022268;28;20049;-62
2023/06/24 06:48:08;;;;;;;5.80;5.25;;;19.90;73.50;;;;;;5015367;28;20170;-60
2023/06/24 06:50:34;;;;;;;7.13;5.82;;;19.90;73.30;;;;;;5018396;28;20309;-62
2023/06/24 06:53:00;;;;;;;6.32;5.72;;;20.00;73.50;;;;;;5012326;28;20033;-62
2023/06/24 06:55:26;;;;;;;7.45;4.80;;;20.10;73.40;;;;;;5019415;28;20041;-62
2023/06/24 06:57:53;;;;;;;5.53;5.03;;;20.20;72.70;;;;;;5022085;28;20060;-62
2023/06/24 07:00:18;;;;;;;5.43;4.90;;;20.30;72.60;;;;;;5023474;28;20984;-61
2023/06/24 07:02:44;;;;;;;5.55;5.05;;;20.40;72.20;;;;;;5016276;28;20095;-62
2023/06/24 07:05:09;;;;;;;7.22;5.53;;;20.50;72.20;;;;;;5025096;28;20037;-62
2023/06/24 07:07:37;;;;;;;5.15;4.65;;;20.60;72.00;;;;;;5020452;28;20033;-62
2023/06/24 07:10:04;;;;;;;6.47;4.63;;;20.70;71.70;;;;;;5022119;28;20036;-62
2023/06/24 07:12:32;;;;;;;5.15;4.65;;;20.80;71.60;;;;;;5015584;28;20524;-62
2023/06/24 07:14:58;;;;;;;4.93;4.53;;;20.90;71.20;;;;;;5024290;28;20132;-62
2023/06/24 07:17:23;;;;;;;5.72;5.20;;;20.90;70.90;;;;;;5023090;28;20125;-62
2023/06/24 07:19:49;;;;;;;5.13;4.70;;;21.00;70.10;;;;;;5028389;28;20088;-60
2023/06/24 07:22:15;;;;;;;7.03;5.10;;;21.10;69.50;;;;;;5015354;28;20032;-62
2023/06/24 07:24:41;;;;;;;5.95;5.30;;;21.10;69.20;;;;;;5023611;28;20435;-62
2023/06/24 07:27:07;;;;;;;5.22;4.72;;;21.20;68.90;;;;;;5023604;28;20042;-62
2023/06/24 07:29:33;;;;;;;5.25;4.45;;;21.30;69.20;;;;;;5022909;28;20056;-62
2023/06/24 07:31:58;;;;;;;4.40;4.00;;;21.30;69.30;;;;;;5022051;28;20576;-62
2023/06/24 07:34:24;;;;;;;4.43;4.00;;;21.40;68.80;;;;;;5027201;28;20059;-62
2023/06/24 07:36:50;;;;;;;5.93;4.70;;;21.50;68.30;;;;;;5028013;28;20119;-61
2023/06/24 07:39:16;;;;;;;4.05;3.75;;;21.60;67.60;;;;;;5027328;28;20121;-61
2023/06/24 07:41:42;;;;;;;4.43;4.03;;;21.70;67.10;;;;;;5026501;28;20044;-60
2023/06/24 07:44:08;;;;;;;4.18;3.83;;;21.80;67.10;;;;;;5012150;28;20046;-62
2023/06/24 07:46:34;;;;;;;5.20;4.03;;;21.80;66.90;;;;;;5025552;28;20123;-62
2023/06/24 07:48:59;;;;;;;4.97;4.45;;;21.90;66.60;;;;;;5030461;28;20401;-62
2023/06/24 07:51:25;;;;;;;4.90;4.50;;;22.10;66.40;;;;;;5027158;28;20043;-59
2023/06/24 07:53:51;;;;;;;5.72;4.60;;;22.10;66.60;;;;;;5032373;28;20041;-62
2023/06/24 07:56:16;;;;;;;5.95;4.47;;;22.20;66.40;;;;;;5026069;28;20460;-62
2023/06/24 07:58:42;;;;;;;5.28;4.40;;;22.30;66.10;;;;;;5020531;28;20037;-62
2023/06/24 08:01:07;;;;;;;5.18;4.68;;;22.40;65.70;;;;;;5024334;28;20474;-62
2023/06/24 08:03:34;;;;;;;5.63;4.68;;;22.40;65.50;;;;;;5025054;28;20531;-63
2023/06/24 08:05:59;;;;;;;6.20;4.45;;;22.50;64.70;;;;;;5023746;28;20092;-62
2023/06/24 08:08:25;;;;;;;4.05;3.75;;;22.60;64.80;;;;;;5027541;28;20638;-62
2023/06/24 08:10:50;;;;;;;4.65;4.25;;;22.70;65.00;;;;;;5015100;28;20052;-62
2023/06/24 08:13:16;;;;;;;6.45;4.82;;;22.70;64.50;;;;;;5024924;28;20120;-62
2023/06/24 08:15:41;;;;;;;4.13;3.72;;;22.70;64.40;;;;;;5023233;28;20029;-62
2023/06/24 08:18:07;;;;;;;5.63;4.10;;;22.80;64.00;;;;;;5025446;28;20492;-62
2023/06/24 08:20:33;;;;;;;4.07;3.67;;;22.90;63.80;;;;;;5029045;28;20127;-62
2023/06/24 08:22:58;;;;;;;3.88;3.55;;;23.00;63.40;;;;;;5028803;28;20382;-63
2023/06/24 08:25:24;;;;;;;4.47;3.83;;;23.10;63.40;;;;;;5030241;28;20104;-61
2023/06/24 08:27:49;;;;;;;4.32;3.92;;;23.20;63.00;;;;;;5025784;28;20073;-62
2023/06/24 08:30:15;;;;;;;6.30;3.83;;;23.30;62.40;;;;;;5026362;28;20374;-62
2023/06/24 08:32:41;;;;;;;4.45;3.88;;;23.40;62.60;;;;;;5022147;28;20128;-61
2023/06/24 08:35:08;;;;;;;4.40;4.00;;;23.50;61.50;;;;;;5026718;28;20122;-63
2023/06/24 08:37:34;;;;;;;4.25;3.55;;;23.60;61.30;;;;;;5024382;28;20045;-62
2023/06/24 08:40:00;;;;;;;7.20;3.88;;;23.60;61.00;;;;;;5035252;28;20344;-62
2023/06/24 08:42:25;;;;;;;5.10;3.80;;;23.80;60.50;;;;;;5034010;28;20037;-60
2023/06/24 08:44:51;;;;;;;4.07;3.67;;;23.80;59.90;;;;;;5029354;28;20451;-63
2023/06/24 08:47:18;;;;;;;4.00;3.60;;;24.00;59.60;;;;;;5032627;28;20033;-62
2023/06/24 08:49:49;;;;;;;3.33;3.05;;;24.00;59.20;;;;;;5033320;28;20426;-62
2023/06/24 08:52:16;;;;;;;3.88;3.50;;;24.10;59.00;;;;;;5032076;28;20671;-62
2023/06/24 08:54:48;;;;;;;3.42;3.13;;;24.10;59.10;;;;;;5031285;28;20048;-62
2023/06/24 08:57:15;;;;;;;3.53;3.22;;;24.20;58.60;;;;;;5034623;28;20041;-62
2023/06/24 08:59:41;;;;;;;3.38;3.10;;;24.20;57.60;;;;;;5032517;28;20079;-62
2023/06/24 09:02:07;;;;;;;2.90;2.70;;;24.30;58.00;;;;;;5032109;28;20044;-62
2023/06/24 09:04:32;;;;;;;3.22;3.00;;;24.30;58.00;;;;;;5032665;28;20060;-62
2023/06/24 09:06:58;;;;;;;4.75;3.15;;;24.40;57.70;;;;;;5031748;28;20125;-62
2023/06/24 09:09:24;;;;;;;3.40;3.08;;;24.40;57.60;;;;;;5032292;28;20069;-62
2023/06/24 09:11:57;;;;;;;4.32;3.08;;;24.50;57.40;;;;;;5029928;28;20029;-62
2023/06/24 09:14:24;;;;;;;3.28;3.03;;;24.50;56.80;;;;;;5033903;28;20538;-61
2023/06/24 09:16:58;;;;;;;3.75;2.85;;;24.50;57.00;;;;;;5030712;28;20037;-62
2023/06/24 09:19:29;;;;;;;3.83;3.40;;;24.60;56.20;;;;;;5028852;28;20576;-61
2023/06/24 09:22:18;;;;;;;3.42;3.13;;;24.70;56.50;;;;;;5029140;28;20568;-61
2023/06/24 09:24:46;;;;;;;2.90;2.70;;;24.80;56.40;;;;;;5030311;28;20399;-61
2023/06/24 09:27:14;;;;;;;3.35;3.05;;;24.90;56.00;;;;;;5033562;28;20041;-61
2023/06/24 09:29:40;;;;;;;2.95;2.75;;;25.00;55.80;;;;;;5033658;28;20116;-62
2023/06/24 09:32:06;;;;;;;4.45;2.70;;;25.20;55.60;;;;;;5032419;28;20394;-61
2023/06/24 09:34:32;;;;;;;3.05;2.85;;;25.20;55.60;;;;;;5033329;28;20048;-62
2023/06/24 09:36:59;;;;;;;3.65;3.03;;;25.30;55.50;;;;;;5035079;28;20049;-62
2023/06/24 09:39:29;;;;;;;3.70;3.40;;;25.40;54.90;;;;;;5031299;28;20026;-62
2023/06/24 09:41:56;;;;;;;5.57;3.60;;;25.50;54.10;;;;;;5033859;28;20033;-61
2023/06/24 09:44:23;;;;;;;3.15;2.88;;;25.50;53.80;;;;;;5033938;28;20038;-62
2023/06/24 09:46:48;;;;;;;4.22;3.60;;;25.60;54.10;;;;;;5034099;28;20036;-61
2023/06/24 09:49:14;;;;;;;3.65;3.35;;;25.60;53.70;;;;;;5033734;28;20120;-63
2023/06/24 09:51:43;;;;;;;4.07;3.72;;;25.60;53.80;;;;;;5032852;28;20044;-62
2023/06/24 09:54:11;;;;;;;3.40;3.20;;;25.50;53.00;;;;;;5032147;28;20037;-62
2023/06/24 09:56:37;;;;;;;6.20;3.60;;;25.50;54.00;;;;;;5030029;28;20044;-62
2023/06/24 09:59:06;;;;;;;4.50;4.10;;;25.50;53.10;;;;;;5033048;28;20038;-62
2023/06/24 10:01:35;;;;;;;3.50;3.20;;;25.50;52.70;;;;;;5035629;28;20510;-63
2023/06/24 10:04:02;;;;;;;3.60;3.30;;;25.50;53.60;;;;;;5034698;28;20411;-62
2023/06/24 10:06:28;;;;;;;4.95;3.78;;;25.50;53.00;;;;;;5035439;28;20035;-62
2023/06/24 10:08:54;;;;;;;3.22;2.88;;;25.60;52.20;;;;;;5033642;28;20501;-63
2023/06/24 10:11:19;;;;;;;3.35;3.05;;;25.70;52.30;;;;;;5031936;28;20042;-62
2023/06/24 10:13:45;;;;;;;2.90;2.70;;;25.70;52.30;;;;;;5033661;28;20060;-62
2023/06/24 10:16:11;;;;;;;3.15;2.88;;;25.80;52.40;;;;;;5038966;28;20036;-62
2023/06/24 10:18:38;;;;;;;3.15;2.95;;;25.90;52.10;;;;;;5038482;28;20383;-62
2023/06/24 10:21:06;;;;;;;3.58;3.28;;;26.00;51.80;;;;;;5030606;28;20051;-62
2023/06/24 10:23:51;;;;;;;2.97;2.78;;;26.10;51.60;;;;;;5032708;28;20120;-62
2023/06/24 10:26:29;;;;;;;3.38;3.08;;;26.20;51.20;;;;;;5033074;28;20440;-62
2023/06/24 10:29:06;;;;;;;3.88;2.75;;;26.40;50.50;;;;;;5035494;28;20041;-61
2023/06/24 10:31:42;;;;;;;3.33;3.10;;;26.40;50.80;;;;;;5029267;28;20052;-62
2023/06/24 10:34:23;;;;;;;3.33;3.10;;;26.50;50.30;;;;;;5027192;28;20773;-63
2023/06/24 10:37:07;;;;;;;2.97;2.78;;;26.60;49.80;;;;;;5028208;28;20039;-62
2023/06/24 10:39:52;;;;;;;3.45;2.67;;;26.60;49.20;;;;;;5028713;28;20123;-62
2023/06/24 10:42:36;;;;;;;2.97;2.67;;;26.70;49.00;;;;;;5028790;28;20040;-63
2023/06/24 10:45:21;;;;;;;2.70;2.50;;;26.70;48.90;;;;;;5028497;28;20134;-62
2023/06/24 10:47:56;;;;;;;3.00;2.80;;;26.80;48.50;;;;;;5032334;28;20030;-62
2023/06/24 10:50:23;;;;;;;3.20;2.90;;;26.80;49.10;;;;;;5032275;28;20038;-63
2023/06/24 10:52:57;;;;;;;3.08;2.88;;;26.90;49.50;;;;;;5024348;28;20516;-63
2023/06/24 10:55:25;;;;;;;2.90;2.70;;;26.90;49.00;;;;;;5034228;28;20044;-62
2023/06/24 10:57:51;;;;;;;3.20;3.00;;;27.00;49.30;;;;;;5037915;28;20087;-62
2023/06/24 11:00:17;;;;;;;2.75;2.55;;;27.00;48.50;;;;;;5036683;28;20029;-62
2023/06/24 11:02:43;;;;;;;2.42;2.22;;;27.10;48.90;;;;;;5036020;28;20033;-62
2023/06/24 11:05:09;;;;;;;2.80;2.60;;;27.10;49.00;;;;;;5036079;28;20033;-63
2023/06/24 11:07:39;;;;;;;3.08;2.75;;;27.10;48.80;;;;;;5035444;28;20091;-62
2023/06/24 11:10:10;;;;;;;3.78;2.60;;;27.20;48.20;;;;;;5035905;28;20025;-62
2023/06/24 11:12:37;;;;;;;2.47;2.30;;;27.20;48.50;;;;;;5035237;28;20413;-62
2023/06/24 11:15:07;;;;;;;2.92;2.40;;;27.30;48.80;;;;;;5031028;28;20576;-60
2023/06/24 11:17:35;;;;;;;2.80;2.60;;;27.40;48.60;;;;;;5031551;28;20037;-63
2023/06/24 11:20:01;;;;;;;2.45;2.25;;;27.50;48.80;;;;;;5028026;28;20036;-61
2023/06/24 11:22:27;;;;;;;2.60;2.40;;;27.50;48.10;;;;;;5032961;28;20036;-63
2023/06/24 11:24:54;;;;;;;2.88;2.55;;;27.70;47.50;;;;;;5034362;28;20385;-62
2023/06/24 11:27:28;;;;;;;2.60;2.40;;;27.70;47.10;;;;;;5034978;28;20489;-63
2023/06/24 11:29:55;;;;;;;2.45;2.25;;;27.90;46.70;;;;;;5035652;28;20021;-62
2023/06/24 11:32:22;;;;;;;2.53;2.33;;;27.80;46.70;;;;;;5034627;28;20529;-64
2023/06/24 11:34:48;;;;;;;2.47;2.28;;;27.80;46.70;;;;;;5035369;28;20121;-62
2023/06/24 11:37:18;;;;;;;2.90;2.70;;;27.90;46.50;;;;;;5036036;28;20128;-62
2023/06/24 11:39:45;;;;;;;3.03;2.72;;;27.90;45.90;;;;;;5026921;28;20045;-63
2023/06/24 11:42:11;;;;;;;2.67;2.47;;;28.00;46.10;;;;;;5027395;28;20071;-63
2023/06/24 11:44:45;;;;;;;3.35;2.72;;;28.00;46.10;;;;;;5026228;28;20414;-61
2023/06/24 11:47:12;;;;;;;2.90;2.70;;;28.00;44.90;;;;;;5034255;28;20501;-63
2023/06/24 11:49:55;;;;;;;3.53;2.33;;;28.00;46.20;;;;;;5031267;28;20045;-63
2023/06/24 11:52:37;;;;;;;2.58;2.42;;;28.10;43.80;;;;;;5029668;28;20042;-64
2023/06/24 11:55:03;;;;;;;3.00;2.63;;;28.00;44.40;;;;;;5034036;28;20029;-62
2023/06/24 11:57:58;;;;;;;2.63;2.42;;;28.00;44.80;;;;;;5027998;28;20073;-63
2023/06/24 12:00:31;;;;;;;2.88;2.67;;;27.90;43.80;;;;;;5028792;28;20037;-62
2023/06/24 12:02:59;;;;;;;2.63;2.42;;;27.90;44.50;;;;;;5024456;28;20591;-63
2023/06/24 12:05:33;;;;;;;3.45;3.10;;;27.90;45.10;;;;;;5019154;28;20087;-63
2023/06/24 12:08:05;;;;;;;2.57;2.37;;;27.80;43.70;;;;;;5031992;28;20049;-62
2023/06/24 12:10:33;;;;;;;2.38;2.25;;;27.70;45.00;;;;;;5029632;28;20030;-62
2023/06/24 12:13:00;;;;;;;2.50;2.30;;;27.70;44.80;;;;;;5032505;28;20041;-63
2023/06/24 12:15:27;;;;;;;2.90;2.70;;;27.70;45.10;;;;;;5034189;28;20048;-63
2023/06/24 12:17:53;;;;;;;3.08;2.80;;;27.70;45.00;;;;;;5031939;28;20117;-63
2023/06/24 12:20:18;;;;;;;2.78;2.58;;;27.70;44.20;;;;;;5033952;28;20776;-63
2023/06/24 12:22:48;;;;;;;2.83;2.63;;;27.70;44.90;;;;;;5033056;28;20034;-63
2023/06/24 12:25:14;;;;;;;2.75;2.55;;;27.70;44.30;;;;;;5035870;28;20037;-62
2023/06/24 12:27:42;;;;;;;2.72;2.50;;;27.70;44.90;;;;;;5032911;28;20113;-62
2023/06/24 12:30:09;;;;;;;4.13;2.70;;;27.80;44.80;;;;;;5034448;28;20353;-63
2023/06/24 12:32:35;;;;;;;2.95;2.58;;;27.80;44.80;;;;;;5033717;28;20107;-63
2023/06/24 12:35:03;;;;;;;3.55;2.60;;;27.90;44.60;;;;;;5032911;28;20481;-60
2023/06/24 12:37:31;;;;;;;2.67;2.47;;;28.00;44.20;;;;;;5032399;28;20034;-64
2023/06/24 12:39:56;;;;;;;3.03;2.67;;;28.00;43.90;;;;;;5035109;28;20035;-63
2023/06/24 12:42:22;;;;;;;2.30;2.20;;;28.00;44.00;;;;;;5027780;28;20041;-63
2023/06/24 12:44:47;;;;;;;2.75;2.55;;;28.10;43.90;;;;;;5029803;28;20044;-62
2023/06/24 12:47:13;;;;;;;2.55;2.35;;;28.10;43.30;;;;;;5033101;28;20032;-63